createdAt,value
2023-05-17T00:03:35.994Z,48.00
2023-05-17T00:06:04.544Z,48.12
2023-05-17T00:08:33.507Z,48.06
2023-05-17T00:11:01.707Z,48.02
2023-05-17T00:13:30.789Z,48.03
2023-05-17T00:15:58.836Z,48.00
2023-05-17T00:18:27.260Z,47.99
2023-05-17T00:20:55.667Z,47.90
2023-05-17T00:23:24.291Z,47.93
2023-05-17T00:25:52.535Z,48.00
2023-05-17T00:28:21.216Z,47.93
2023-05-17T00:30:49.946Z,48.02
2023-05-17T00:33:18.981Z,47.96
2023-05-17T00:35:47.318Z,47.88
2023-05-17T00:38:15.610Z,47.77
2023-05-17T00:40:43.944Z,47.67
2023-05-17T00:43:13.299Z,47.67
2023-05-17T00:45:42.785Z,47.47
2023-05-17T00:48:11.032Z,47.48
2023-05-17T00:50:39.495Z,47.38
2023-05-17T00:53:09.831Z,47.30
2023-05-17T00:55:39.450Z,47.27
2023-05-17T00:58:08.155Z,47.25
2023-05-17T01:00:36.281Z,47.21
2023-05-17T01:03:05.828Z,47.22
2023-05-17T01:05:35.111Z,47.13
2023-05-17T01:08:04.226Z,46.90
2023-05-17T01:11:10.782Z,46.90
2023-05-17T01:14:03.832Z,46.81
2023-05-17T01:16:39.449Z,46.65
2023-05-17T01:19:50.446Z,46.56
2023-05-17T01:22:31.963Z,46.42
2023-05-17T01:25:43.578Z,46.32
2023-05-17T01:28:14.193Z,46.13
2023-05-17T01:30:47.316Z,46.00
2023-05-17T01:33:16.608Z,45.97
2023-05-17T01:35:44.885Z,45.88
2023-05-17T01:38:13.364Z,45.69
2023-05-17T01:41:04.224Z,45.67
2023-05-17T01:44:00.493Z,45.60
2023-05-17T01:46:34.754Z,45.49
2023-05-17T01:49:16.349Z,45.54
2023-05-17T01:51:49.347Z,45.37
2023-05-17T01:54:23.489Z,45.40
2023-05-17T01:56:57.822Z,45.29
2023-05-17T01:59:27.790Z,45.11
2023-05-17T02:02:00.934Z,45.20
2023-05-17T02:04:30.879Z,45.28
2023-05-17T02:06:59.169Z,45.07
2023-05-17T02:09:27.981Z,44.97
2023-05-17T02:11:57.036Z,44.93
2023-05-17T02:14:25.770Z,44.88
2023-05-17T02:16:54.469Z,44.87
2023-05-17T02:19:23.019Z,44.85
2023-05-17T02:21:51.320Z,44.71
2023-05-17T02:24:21.608Z,44.37
2023-05-17T02:26:49.787Z,44.36
2023-05-17T02:29:18.048Z,44.46
2023-05-17T02:31:46.756Z,44.48
2023-05-17T02:34:15.237Z,44.55
2023-05-17T02:36:43.458Z,44.54
2023-05-17T02:39:12.557Z,44.49
2023-05-17T02:41:41.777Z,44.45
2023-05-17T02:44:09.902Z,44.34
2023-05-17T02:46:38.720Z,44.35
2023-05-17T02:49:07.451Z,44.25
2023-05-17T02:51:35.984Z,44.12
2023-05-17T02:54:05.197Z,44.13
2023-05-17T02:56:34.091Z,44.12
2023-05-17T02:59:03.539Z,44.20
2023-05-17T03:01:31.761Z,44.14
2023-05-17T03:04:00.748Z,44.02
2023-05-17T03:06:29.303Z,44.13
2023-05-17T03:08:57.463Z,43.88
2023-05-17T03:11:26.825Z,43.70
2023-05-17T03:13:55.799Z,43.83
2023-05-17T03:16:24.587Z,43.74
2023-05-17T03:18:53.001Z,43.82
2023-05-17T03:21:21.366Z,43.92
2023-05-17T03:23:50.177Z,43.91
2023-05-17T03:26:19.238Z,43.79
2023-05-17T03:28:48.071Z,43.69
2023-05-17T03:31:16.507Z,43.65
2023-05-17T03:33:45.566Z,43.67
2023-05-17T03:36:15.301Z,43.69
2023-05-17T03:38:44.391Z,43.67
2023-05-17T03:41:13.107Z,43.77
2023-05-17T03:43:41.993Z,43.79
2023-05-17T03:46:10.868Z,43.65
2023-05-17T03:48:39.048Z,43.72
2023-05-17T03:51:07.395Z,43.70
2023-05-17T03:53:36.673Z,43.78
2023-05-17T03:56:05.679Z,43.60
2023-05-17T03:58:34.001Z,43.54
2023-05-17T04:01:04.327Z,43.57
2023-05-17T04:03:33.374Z,43.61
2023-05-17T04:06:05.839Z,43.62
2023-05-17T04:08:35.767Z,43.64
2023-05-17T04:11:04.536Z,43.62
2023-05-17T04:13:32.891Z,43.56
2023-05-17T04:16:01.236Z,43.68
2023-05-17T04:18:30.758Z,43.76
2023-05-17T04:20:59.530Z,43.75
2023-05-17T04:23:28.265Z,43.74
2023-05-17T04:25:56.593Z,43.76
2023-05-17T04:28:26.304Z,43.71
2023-05-17T04:30:56.377Z,43.67
2023-05-17T04:33:25.191Z,43.75
2023-05-17T04:35:57.116Z,43.83
2023-05-17T04:38:25.297Z,44.10
2023-05-17T04:40:54.449Z,44.25
2023-05-17T04:43:22.883Z,44.35
2023-05-17T04:45:57.060Z,44.29
2023-05-17T04:48:26.022Z,44.16
2023-05-17T04:50:54.382Z,44.36
2023-05-17T04:53:22.564Z,44.31
2023-05-17T04:55:51.419Z,44.46
2023-05-17T04:58:19.553Z,44.42
2023-05-17T05:00:48.320Z,44.41
2023-05-17T05:03:16.586Z,44.47
2023-05-17T05:05:45.911Z,44.38
2023-05-17T05:08:14.301Z,44.24
2023-05-17T05:10:43.766Z,44.37
2023-05-17T05:13:12.992Z,44.36
2023-05-17T05:15:43.891Z,44.54
2023-05-17T05:18:12.332Z,44.56
2023-05-17T05:20:40.411Z,44.36
2023-05-17T05:23:08.833Z,44.56
2023-05-17T05:25:38.254Z,44.40
2023-05-17T05:28:06.906Z,44.24
2023-05-17T05:30:35.224Z,44.36
2023-05-17T05:33:04.193Z,44.16
2023-05-17T05:35:32.880Z,44.22
2023-05-17T05:38:01.264Z,44.18
2023-05-17T05:40:29.934Z,44.12
2023-05-17T05:42:58.606Z,44.09
2023-05-17T05:45:26.844Z,44.12
2023-05-17T05:47:55.473Z,44.09
2023-05-17T05:50:23.800Z,43.85
2023-05-17T05:52:53.484Z,43.74
2023-05-17T05:55:24.525Z,43.87
2023-05-17T05:57:52.782Z,43.98
2023-05-17T06:00:21.295Z,44.02
2023-05-17T06:02:49.500Z,44.09
2023-05-17T06:05:17.942Z,44.34
2023-05-17T06:07:46.369Z,44.59
2023-05-17T06:10:14.704Z,44.81
2023-05-17T06:12:42.996Z,44.93
2023-05-17T06:15:11.497Z,45.27
2023-05-17T06:17:39.699Z,45.57
2023-05-17T06:20:10.144Z,45.88
2023-05-17T06:22:38.948Z,46.55
2023-05-17T06:25:07.779Z,47.95
2023-05-17T06:27:38.907Z,49.77
2023-05-17T06:30:09.263Z,49.87
2023-05-17T06:32:37.576Z,49.97
2023-05-17T06:35:06.227Z,50.06
2023-05-17T06:37:34.418Z,49.74
2023-05-17T06:40:14.832Z,49.41
2023-05-17T06:42:44.140Z,49.14
2023-05-17T06:45:12.862Z,48.94
2023-05-17T06:47:41.321Z,48.89
2023-05-17T06:50:09.933Z,49.17
2023-05-17T06:52:38.310Z,49.11
2023-05-17T06:55:07.392Z,48.51
2023-05-17T06:57:36.597Z,48.53
2023-05-17T07:00:05.652Z,48.77
2023-05-17T07:02:34.885Z,49.32
2023-05-17T07:05:05.780Z,49.09
2023-05-17T07:07:34.587Z,48.26
2023-05-17T07:10:03.152Z,48.11
2023-05-17T07:12:32.835Z,47.62
2023-05-17T07:15:01.216Z,47.21
2023-05-17T07:17:29.809Z,46.09
2023-05-17T07:19:58.277Z,45.78
2023-05-17T07:22:26.542Z,45.88
2023-05-17T07:24:54.766Z,45.55
2023-05-17T07:27:23.158Z,45.31
2023-05-17T07:29:51.267Z,45.20
2023-05-17T07:32:19.625Z,44.81
2023-05-17T07:34:48.358Z,44.14
2023-05-17T07:37:19.165Z,44.63
2023-05-17T07:39:47.625Z,45.62
2023-05-17T07:42:16.311Z,46.30
2023-05-17T07:44:44.725Z,46.47
2023-05-17T07:47:12.971Z,43.72
2023-05-17T07:49:41.521Z,38.33
2023-05-17T07:52:10.437Z,35.89
2023-05-17T07:54:40.018Z,34.07
2023-05-17T07:57:08.106Z,31.09
2023-05-17T07:59:36.220Z,30.07
2023-05-17T08:02:04.819Z,28.72
2023-05-17T08:04:33.340Z,27.03
2023-05-17T08:07:02.542Z,26.83
2023-05-17T08:09:30.714Z,25.35
2023-05-17T08:11:58.872Z,25.22
2023-05-17T08:14:29.055Z,25.52
2023-05-17T08:16:58.192Z,24.49
2023-05-17T08:19:26.666Z,24.73
2023-05-17T08:21:55.011Z,24.79
2023-05-17T08:24:23.146Z,25.40
2023-05-17T08:26:53.326Z,25.91
2023-05-17T08:29:22.326Z,26.63
2023-05-17T08:31:50.937Z,26.69
2023-05-17T08:34:19.099Z,26.31
2023-05-17T08:36:47.288Z,27.50
2023-05-17T08:39:15.935Z,28.56
2023-05-17T08:41:46.976Z,29.33
2023-05-17T08:44:16.979Z,29.35
2023-05-17T08:46:48.092Z,29.12
2023-05-17T08:49:17.013Z,27.77
2023-05-17T08:51:47.323Z,27.72
2023-05-17T08:54:15.775Z,26.38
2023-05-17T08:56:45.079Z,26.22
2023-05-17T08:59:13.634Z,25.53
2023-05-17T09:01:45.073Z,25.20
2023-05-17T09:04:13.981Z,24.29
2023-05-17T09:06:43.369Z,24.67
2023-05-17T09:09:12.224Z,25.43
2023-05-17T09:11:40.627Z,24.93
2023-05-17T09:14:09.206Z,25.24
2023-05-17T09:16:38.410Z,25.03
2023-05-17T09:19:08.205Z,25.63
2023-05-17T09:21:37.039Z,25.81
2023-05-17T09:24:07.788Z,24.32
2023-05-17T09:26:46.016Z,24.59
2023-05-17T09:29:16.468Z,24.23
2023-05-17T09:31:45.269Z,24.26
2023-05-17T09:34:19.106Z,24.93
2023-05-17T09:36:47.312Z,24.85
2023-05-17T09:39:16.108Z,25.24
2023-05-17T09:41:47.173Z,25.71
2023-05-17T09:44:17.030Z,25.75
2023-05-17T09:46:49.044Z,26.27
2023-05-17T09:49:19.517Z,26.05
2023-05-17T09:51:49.593Z,26.01
2023-05-17T09:54:17.859Z,27.04
2023-05-17T09:56:54.158Z,27.26
2023-05-17T09:59:25.952Z,27.15
2023-05-17T10:01:57.790Z,27.61
2023-05-17T10:04:30.938Z,27.82
2023-05-17T10:07:01.665Z,27.86
2023-05-17T10:09:32.937Z,27.80
2023-05-17T10:12:03.053Z,27.43
2023-05-17T10:14:32.879Z,27.36
2023-05-17T10:17:02.484Z,27.76
2023-05-17T10:19:31.422Z,28.58
2023-05-17T10:22:19.019Z,28.54
2023-05-17T10:24:51.745Z,29.51
2023-05-17T10:27:21.014Z,29.20
2023-05-17T10:29:50.875Z,28.81
2023-05-17T10:32:21.934Z,29.17
2023-05-17T10:34:58.141Z,29.14
2023-05-17T10:37:35.621Z,30.25
2023-05-17T10:40:05.285Z,30.66
2023-05-17T10:42:33.980Z,31.42
2023-05-17T10:45:03.112Z,30.89
2023-05-17T10:47:32.844Z,31.15
2023-05-17T10:50:02.256Z,31.06
2023-05-17T10:52:31.072Z,31.16
2023-05-17T10:55:00.027Z,31.88
2023-05-17T11:00:09.002Z,32.51
2023-05-17T11:02:42.242Z,32.04
2023-05-17T11:05:24.385Z,31.79
2023-05-17T11:07:52.899Z,32.07
2023-05-17T11:10:23.532Z,32.69
2023-05-17T11:12:52.444Z,32.80
2023-05-17T11:15:25.178Z,33.10
2023-05-17T11:17:54.005Z,32.57
2023-05-17T11:20:40.721Z,32.41
2023-05-17T11:23:17.045Z,32.39
2023-05-17T11:25:46.519Z,32.55
2023-05-17T11:28:21.619Z,32.74
2023-05-17T11:30:49.839Z,32.86
2023-05-17T11:33:29.710Z,33.02
2023-05-17T11:36:06.910Z,33.68
2023-05-17T11:38:35.099Z,35.19
2023-05-17T11:43:51.122Z,35.44
2023-05-17T11:46:25.290Z,35.86
2023-05-17T11:48:55.998Z,36.49
2023-05-17T11:51:25.863Z,37.46
2023-05-17T11:53:55.058Z,37.75
2023-05-17T11:56:35.535Z,38.10
2023-05-17T11:59:11.296Z,39.31
2023-05-17T12:01:44.847Z,40.16
2023-05-17T12:04:13.719Z,40.82
2023-05-17T12:06:44.653Z,40.88
2023-05-17T12:09:16.709Z,40.94
2023-05-17T12:11:45.086Z,41.88
2023-05-17T12:14:17.525Z,42.48
2023-05-17T12:16:50.733Z,42.62
2023-05-17T12:19:20.708Z,42.29
2023-05-17T12:21:49.861Z,42.12
2023-05-17T12:24:18.176Z,41.50
2023-05-17T12:26:48.507Z,41.18
2023-05-17T12:29:20.239Z,41.25
2023-05-17T12:31:50.976Z,41.49
2023-05-17T12:34:19.482Z,41.68
2023-05-17T12:36:47.856Z,41.43
2023-05-17T12:39:17.077Z,41.06
2023-05-17T12:41:45.897Z,41.00
2023-05-17T12:44:16.155Z,40.70
2023-05-17T12:46:45.210Z,40.83
2023-05-17T12:49:13.580Z,40.85
2023-05-17T12:51:46.695Z,40.27
2023-05-17T12:54:26.378Z,40.25
2023-05-17T12:56:54.863Z,40.28
2023-05-17T12:59:23.643Z,41.33
2023-05-17T13:01:57.341Z,42.03
2023-05-17T13:04:32.432Z,43.12
2023-05-17T13:07:04.504Z,43.54
2023-05-17T13:09:34.578Z,43.97
2023-05-17T13:12:07.570Z,44.24
2023-05-17T13:14:39.337Z,44.27
2023-05-17T13:17:13.527Z,44.31
2023-05-17T13:19:41.740Z,44.77
2023-05-17T13:22:11.014Z,44.92
2023-05-17T13:24:39.982Z,45.42
2023-05-17T13:27:08.976Z,46.01
2023-05-17T13:29:41.259Z,46.47
2023-05-17T13:32:11.982Z,46.11
2023-05-17T13:34:41.310Z,46.56
2023-05-17T13:37:12.082Z,46.79
2023-05-17T13:39:42.030Z,46.81
2023-05-17T13:42:13.868Z,47.10
2023-05-17T13:44:42.543Z,47.51
2023-05-17T13:47:10.743Z,47.50
2023-05-17T13:49:39.163Z,47.59
2023-05-17T13:52:09.302Z,48.00
2023-05-17T13:54:37.880Z,47.55
2023-05-17T13:57:07.207Z,47.56
2023-05-17T13:59:36.156Z,47.49
2023-05-17T14:02:04.440Z,47.09
2023-05-17T14:04:33.732Z,47.45
2023-05-17T14:07:03.615Z,47.93
2023-05-17T14:09:32.104Z,48.08
2023-05-17T14:12:01.757Z,48.34
2023-05-17T14:14:30.858Z,48.86
2023-05-17T14:17:00.976Z,49.01
2023-05-17T14:19:29.465Z,48.97
2023-05-17T14:21:59.429Z,49.37
2023-05-17T14:24:29.556Z,49.73
2023-05-17T14:26:57.862Z,49.88
2023-05-17T14:29:26.475Z,50.57
2023-05-17T14:31:54.736Z,50.69
2023-05-17T14:34:23.578Z,50.95
2023-05-17T14:36:53.592Z,51.09
2023-05-17T14:39:21.752Z,51.23
2023-05-17T14:41:49.928Z,51.58
2023-05-17T14:44:18.372Z,52.04
2023-05-17T14:46:46.605Z,52.26
2023-05-17T14:49:14.954Z,52.47
2023-05-17T14:51:43.837Z,52.70
2023-05-17T14:54:13.641Z,52.75
2023-05-17T14:56:42.432Z,53.06
2023-05-17T14:59:10.876Z,53.01
2023-05-17T15:01:39.125Z,53.23
2023-05-17T15:04:07.934Z,53.05
2023-05-17T15:06:36.294Z,53.45
2023-05-17T15:09:04.735Z,53.66
2023-05-17T15:11:32.831Z,54.09
2023-05-17T15:14:01.180Z,53.85
2023-05-17T15:16:29.412Z,53.67
2023-05-17T15:18:57.958Z,53.76
2023-05-17T15:21:26.575Z,53.82
2023-05-17T15:23:56.287Z,53.97
2023-05-17T15:26:24.681Z,53.82
2023-05-17T15:28:53.289Z,54.04
2023-05-17T15:31:21.950Z,54.21
2023-05-17T15:33:50.872Z,54.25
2023-05-17T15:36:19.676Z,54.34
2023-05-17T15:38:47.946Z,54.59
2023-05-17T15:41:18.134Z,54.68
2023-05-17T15:43:46.714Z,54.78
2023-05-17T15:46:15.204Z,54.95
2023-05-17T15:48:43.643Z,54.88
2023-05-17T15:51:12.431Z,55.00
2023-05-17T15:53:40.834Z,55.08
2023-05-17T15:56:09.170Z,54.79
2023-05-17T15:58:37.523Z,54.85
2023-05-17T16:01:06.284Z,54.97
2023-05-17T16:03:34.688Z,55.11
2023-05-17T16:06:03.290Z,55.31
2023-05-17T16:08:32.283Z,55.56
2023-05-17T16:11:02.173Z,55.72
2023-05-17T16:13:31.058Z,55.83
2023-05-17T16:16:00.316Z,55.74
2023-05-17T16:18:28.637Z,55.52
2023-05-17T16:20:58.854Z,55.31
2023-05-17T16:23:27.097Z,55.34
2023-05-17T16:25:55.950Z,55.33
2023-05-17T16:28:24.389Z,55.51
2023-05-17T16:30:53.389Z,55.42
2023-05-17T16:33:21.963Z,55.03
2023-05-17T16:35:50.290Z,54.88
2023-05-17T16:38:18.501Z,54.91
2023-05-17T16:40:46.675Z,55.11
2023-05-17T16:43:15.473Z,54.91
2023-05-17T16:45:44.240Z,55.06
2023-05-17T16:48:13.755Z,54.99
2023-05-17T16:50:42.919Z,55.03
2023-05-17T16:53:11.616Z,55.20
2023-05-17T16:55:40.160Z,55.62
2023-05-17T16:58:08.948Z,55.74
2023-05-17T17:00:38.108Z,55.86
2023-05-17T17:03:09.254Z,56.06
2023-05-17T17:05:38.983Z,56.06
2023-05-17T17:08:15.180Z,56.30
2023-05-17T17:10:44.115Z,56.49
2023-05-17T17:13:12.323Z,56.54
2023-05-17T17:15:40.507Z,56.82
2023-05-17T17:18:08.890Z,57.02
2023-05-17T17:20:37.160Z,57.20
2023-05-17T17:23:05.286Z,57.33
2023-05-17T17:25:33.595Z,57.31
2023-05-17T17:28:03.717Z,57.19
2023-05-17T17:30:32.242Z,57.38
2023-05-17T17:33:01.163Z,57.53
2023-05-17T17:35:29.872Z,57.61
2023-05-17T17:37:58.172Z,57.74
2023-05-17T17:40:26.720Z,57.84
2023-05-17T17:42:55.485Z,58.07
2023-05-17T17:45:24.465Z,58.21
2023-05-17T17:47:53.033Z,58.18
2023-05-17T17:50:21.782Z,58.45
2023-05-17T17:52:50.559Z,58.85
2023-05-17T17:55:19.303Z,58.97
2023-05-17T17:57:47.342Z,58.91
2023-05-17T18:00:15.905Z,59.31
2023-05-17T18:02:44.778Z,59.40
2023-05-17T18:05:13.249Z,59.38
2023-05-17T18:07:41.416Z,59.45
2023-05-17T18:10:10.894Z,59.61
2023-05-17T18:12:39.239Z,59.59
2023-05-17T18:15:07.715Z,59.54
2023-05-17T18:17:36.465Z,59.62
2023-05-17T18:20:05.728Z,59.59
2023-05-17T18:22:34.474Z,59.82
2023-05-17T18:25:03.477Z,59.59
2023-05-17T18:27:31.579Z,59.68
2023-05-17T18:29:59.951Z,59.89
2023-05-17T18:32:28.400Z,60.04
2023-05-17T18:34:57.908Z,60.14
2023-05-17T18:37:26.155Z,60.14
2023-05-17T18:39:54.568Z,60.32
2023-05-17T18:42:22.775Z,60.46
2023-05-17T18:44:50.978Z,60.43
2023-05-17T18:47:19.351Z,60.61
2023-05-17T18:49:47.504Z,60.76
2023-05-17T18:52:15.755Z,60.67
2023-05-17T18:54:45.339Z,60.77
2023-05-17T18:57:14.728Z,60.75
2023-05-17T18:59:42.800Z,60.85
2023-05-17T19:02:11.011Z,60.98
2023-05-17T19:04:39.161Z,60.80
2023-05-17T19:07:07.531Z,60.97
2023-05-17T19:09:36.787Z,61.00
2023-05-17T19:12:05.856Z,61.01
2023-05-17T19:14:34.200Z,61.11
2023-05-17T19:17:03.651Z,61.13
2023-05-17T19:19:53.866Z,61.01
2023-05-17T19:22:25.350Z,61.14
2023-05-17T19:24:53.497Z,61.19
2023-05-17T19:27:22.712Z,61.09
2023-05-17T19:29:50.929Z,60.89
2023-05-17T19:32:19.237Z,60.45
2023-05-17T19:34:50.130Z,60.03
2023-05-17T19:37:18.777Z,59.86
2023-05-17T19:39:47.008Z,59.40
2023-05-17T19:42:15.341Z,59.26
2023-05-17T19:44:43.466Z,59.25
2023-05-17T19:47:11.674Z,59.12
2023-05-17T19:49:39.863Z,59.23
2023-05-17T19:52:08.768Z,59.28
2023-05-17T19:54:37.646Z,59.34
2023-05-17T19:57:06.241Z,59.23
2023-05-17T19:59:34.533Z,59.06
2023-05-17T20:02:02.659Z,58.88
2023-05-17T20:04:30.796Z,58.78
2023-05-17T20:06:59.205Z,58.64
2023-05-17T20:09:27.298Z,58.44
2023-05-17T20:11:55.486Z,58.44
2023-05-17T20:14:23.830Z,58.49
2023-05-17T20:16:52.044Z,58.54
2023-05-17T20:19:20.123Z,58.36
2023-05-17T20:21:48.950Z,58.22
2023-05-17T20:24:17.247Z,58.27
2023-05-17T20:26:45.357Z,58.11
2023-05-17T20:29:13.778Z,57.87
2023-05-17T20:31:42.518Z,57.60
2023-05-17T20:34:10.981Z,57.49
2023-05-17T20:36:39.462Z,57.31
2023-05-17T20:39:07.535Z,57.22
2023-05-17T20:41:35.773Z,57.00
2023-05-17T20:44:04.166Z,56.93
2023-05-17T20:46:33.238Z,56.74
2023-05-17T20:49:02.671Z,56.69
2023-05-17T20:51:31.562Z,56.74
2023-05-17T20:54:01.113Z,56.85
2023-05-17T20:56:29.747Z,56.92
2023-05-17T20:58:58.408Z,57.00
2023-05-17T21:01:27.059Z,57.07
2023-05-17T21:03:55.794Z,57.05
2023-05-17T21:06:24.763Z,57.00
2023-05-17T21:08:53.003Z,56.71
2023-05-17T21:11:21.486Z,56.75
2023-05-17T21:13:51.004Z,56.88
2023-05-17T21:16:19.212Z,56.82
2023-05-17T21:18:47.854Z,56.79
2023-05-17T21:21:16.496Z,56.94
2023-05-17T21:23:45.197Z,56.93
2023-05-17T21:26:13.436Z,56.86
2023-05-17T21:28:42.073Z,56.86
2023-05-17T21:31:10.385Z,56.89
2023-05-17T21:33:38.522Z,56.63
2023-05-17T21:36:06.919Z,56.47
2023-05-17T21:38:35.026Z,56.42
2023-05-17T21:41:03.693Z,56.53
2023-05-17T21:43:31.998Z,56.73
2023-05-17T21:46:00.231Z,56.98
2023-05-17T21:48:29.011Z,57.01
2023-05-17T21:50:57.670Z,57.02
2023-05-17T21:53:25.939Z,57.07
2023-05-17T21:56:02.142Z,57.01
2023-05-17T21:58:32.104Z,57.11
2023-05-17T22:01:01.561Z,57.11
2023-05-17T22:03:30.146Z,57.02
2023-05-17T22:05:58.562Z,57.14
2023-05-17T22:08:26.997Z,57.12
2023-05-17T22:10:55.272Z,57.27
2023-05-17T22:13:24.015Z,57.20
2023-05-17T22:15:55.451Z,57.18
2023-05-17T22:18:23.782Z,57.35
2023-05-17T22:20:51.953Z,57.40
2023-05-17T22:23:20.465Z,57.60
2023-05-17T22:25:48.893Z,57.65
2023-05-17T22:28:17.191Z,57.65
2023-05-17T22:30:45.209Z,57.46
2023-05-17T22:33:13.368Z,57.41
2023-05-17T22:35:41.599Z,57.31
2023-05-17T22:38:09.802Z,57.47
2023-05-17T22:40:38.444Z,57.39
2023-05-17T22:43:06.761Z,57.41
2023-05-17T22:45:34.979Z,57.53
2023-05-17T22:48:04.277Z,57.38
2023-05-17T22:50:33.320Z,57.34
2023-05-17T22:53:02.180Z,57.35
2023-05-17T22:55:30.801Z,57.35
2023-05-17T22:57:59.213Z,57.48
2023-05-17T23:00:27.362Z,57.71
2023-05-17T23:02:55.884Z,57.68
2023-05-17T23:05:24.067Z,57.63
2023-05-17T23:07:52.258Z,57.68
2023-05-17T23:10:20.810Z,57.69
2023-05-17T23:12:50.216Z,57.61
2023-05-17T23:15:20.468Z,57.59
2023-05-17T23:17:48.688Z,57.44
2023-05-17T23:20:17.424Z,57.38
2023-05-17T23:22:46.264Z,57.45
2023-05-17T23:25:15.837Z,57.40
2023-05-17T23:27:43.986Z,57.43
2023-05-17T23:30:12.322Z,57.44
2023-05-17T23:32:40.516Z,57.32
2023-05-17T23:35:09.695Z,57.39
2023-05-17T23:37:38.580Z,57.43
2023-05-17T23:40:07.725Z,57.49
2023-05-17T23:42:35.901Z,57.31
2023-05-17T23:45:04.511Z,57.45
2023-05-17T23:47:32.948Z,57.50
2023-05-17T23:50:01.473Z,57.37
2023-05-17T23:52:29.709Z,57.53
2023-05-17T23:54:58.077Z,57.69
2023-05-17T23:57:26.296Z,57.81
2023-05-17T23:59:54.450Z,57.98
